createdAt,value
2022-12-16T00:00:09.836Z,64.51
2022-12-16T00:01:32.265Z,63.65
2022-12-16T00:02:34.704Z,62.39
2022-12-16T00:03:37.877Z,60.98
2022-12-16T00:04:39.760Z,59.56
2022-12-16T00:05:44.517Z,57.71
2022-12-16T00:06:46.730Z,55.87
2022-12-16T00:07:49.066Z,55.29
2022-12-16T00:08:51.796Z,55.59
2022-12-16T00:09:53.939Z,56.21
2022-12-16T00:11:01.244Z,57.02
2022-12-16T00:12:10.726Z,57.82
2022-12-16T00:13:19.428Z,58.77
2022-12-16T00:14:21.926Z,59.53
2022-12-16T00:15:24.590Z,60.20
2022-12-16T00:16:29.464Z,60.86
2022-12-16T00:17:31.319Z,61.49
2022-12-16T00:18:37.008Z,62.01
2022-12-16T00:19:39.062Z,62.60
2022-12-16T00:20:49.522Z,63.58
2022-12-16T00:21:53.993Z,64.37
2022-12-16T00:22:56.734Z,64.02
2022-12-16T00:23:58.996Z,63.02
2022-12-16T00:25:00.843Z,61.71
2022-12-16T00:26:03.126Z,60.30
2022-12-16T00:27:04.970Z,58.75
2022-12-16T00:28:06.968Z,56.70
2022-12-16T00:29:11.142Z,55.50
2022-12-16T00:30:13.604Z,55.43
2022-12-16T00:31:16.445Z,56.00
2022-12-16T00:32:18.658Z,56.74
2022-12-16T00:33:22.543Z,57.51
2022-12-16T00:34:24.485Z,58.31
2022-12-16T00:35:26.322Z,59.10
2022-12-16T00:36:28.348Z,59.78
2022-12-16T00:37:30.469Z,60.41
2022-12-16T00:38:32.747Z,60.90
2022-12-16T00:39:34.702Z,61.57
2022-12-16T00:40:37.169Z,62.15
2022-12-16T00:41:39.434Z,62.74
2022-12-16T00:42:41.254Z,63.85
2022-12-16T00:43:43.343Z,64.46
2022-12-16T00:44:45.572Z,64.07
2022-12-16T00:45:48.780Z,63.01
2022-12-16T00:46:50.727Z,61.67
2022-12-16T00:47:52.796Z,60.22
2022-12-16T00:48:55.026Z,58.80
2022-12-16T00:49:57.155Z,56.77
2022-12-16T00:50:59.089Z,55.59
2022-12-16T00:52:00.985Z,55.44
2022-12-16T00:53:04.648Z,55.88
2022-12-16T00:54:06.610Z,56.58
2022-12-16T00:55:08.993Z,57.28
2022-12-16T00:56:14.773Z,58.08
2022-12-16T00:58:38.072Z,59.79
2022-12-16T01:00:18.379Z,60.94
2022-12-16T01:01:20.651Z,61.59
2022-12-16T01:02:22.657Z,62.14
2022-12-16T01:04:58.176Z,64.27
2022-12-16T01:08:31.798Z,61.78
2022-12-16T01:09:33.303Z,60.42
2022-12-16T01:10:34.031Z,59.14
2022-12-16T01:11:35.932Z,57.98
2022-12-16T01:12:37.367Z,56.91
2022-12-16T01:13:38.371Z,55.87
2022-12-16T01:14:39.210Z,55.00
2022-12-16T01:15:40.001Z,54.04
2022-12-16T01:16:40.424Z,52.34
2022-12-16T01:17:41.265Z,51.71
2022-12-16T01:18:41.783Z,52.04
2022-12-16T01:19:42.184Z,52.72
2022-12-16T01:20:42.692Z,53.69
2022-12-16T01:21:43.297Z,54.67
2022-12-16T01:22:43.680Z,55.44
2022-12-16T01:23:44.296Z,56.34
2022-12-16T01:24:44.685Z,57.66
2022-12-16T01:25:45.196Z,58.85
2022-12-16T01:26:45.525Z,59.03
2022-12-16T01:27:46.177Z,58.47
2022-12-16T01:28:50.017Z,57.52
2022-12-16T01:29:50.783Z,56.51
2022-12-16T01:30:56.881Z,55.43
2022-12-16T01:31:57.332Z,54.29
2022-12-16T01:32:57.746Z,52.63
2022-12-16T01:33:58.106Z,51.74
2022-12-16T01:34:58.470Z,51.88
2022-12-16T01:36:07.607Z,52.56
2022-12-16T01:37:12.185Z,53.62
2022-12-16T01:38:12.555Z,54.69
2022-12-16T01:39:13.101Z,55.71
2022-12-16T01:40:20.632Z,56.71
2022-12-16T01:41:21.313Z,58.27
2022-12-16T01:42:22.529Z,58.91
2022-12-16T01:43:32.698Z,58.63
2022-12-16T01:44:33.906Z,57.68
2022-12-16T01:45:35.904Z,56.69
2022-12-16T01:46:38.184Z,55.59
2022-12-16T01:47:39.070Z,54.52
2022-12-16T01:49:03.303Z,52.85
2022-12-16T01:50:14.366Z,51.61
2022-12-16T01:51:34.828Z,52.03
2022-12-16T01:52:44.439Z,53.15
2022-12-16T01:53:52.092Z,54.35
2022-12-16T01:55:02.188Z,55.47
2022-12-16T01:56:03.674Z,56.52
2022-12-16T01:57:12.225Z,57.91
2022-12-16T01:58:23.426Z,58.91
2022-12-16T01:59:29.867Z,58.62
2022-12-16T02:00:30.495Z,57.68
2022-12-16T02:01:31.470Z,56.62
2022-12-16T02:02:33.873Z,55.49
2022-12-16T02:03:36.942Z,54.35
2022-12-16T02:04:58.119Z,52.64
2022-12-16T02:05:59.996Z,51.68
2022-12-16T02:07:01.363Z,52.07
2022-12-16T02:08:15.991Z,52.77
2022-12-16T02:09:17.492Z,53.88
2022-12-16T02:10:28.573Z,54.95
2022-12-16T02:11:56.630Z,56.17
2022-12-16T02:13:18.503Z,58.06
2022-12-16T02:14:34.950Z,58.93
2022-12-16T02:16:16.966Z,58.25
2022-12-16T02:17:40.539Z,56.59
2022-12-16T02:19:22.723Z,55.21
2022-12-16T02:21:05.247Z,52.85
2022-12-16T02:22:14.480Z,51.68
2022-12-16T02:23:54.105Z,52.22
2022-12-16T02:25:31.346Z,53.42
2022-12-16T02:27:10.105Z,55.00
2022-12-16T02:29:02.191Z,56.53
2022-12-16T02:30:10.065Z,58.90
2022-12-16T02:31:20.515Z,58.92
2022-12-16T02:32:28.464Z,58.04
2022-12-16T02:33:38.152Z,57.33
2022-12-16T02:35:09.941Z,55.89
2022-12-16T02:36:35.539Z,54.07
2022-12-16T02:37:44.353Z,51.88
2022-12-16T02:38:56.519Z,51.71
2022-12-16T02:40:04.901Z,52.43
2022-12-16T02:41:20.993Z,53.34
2022-12-16T02:42:44.112Z,54.65
2022-12-16T02:44:05.859Z,56.07
2022-12-16T02:45:17.339Z,57.74
2022-12-16T02:46:23.592Z,58.86
2022-12-16T02:47:24.290Z,58.78
2022-12-16T02:48:24.703Z,58.03
2022-12-16T02:49:25.066Z,57.24
2022-12-16T02:50:32.904Z,56.12
2022-12-16T02:51:38.198Z,55.02
2022-12-16T02:52:39.253Z,53.49
2022-12-16T02:53:43.576Z,52.07
2022-12-16T02:54:46.175Z,51.73
2022-12-16T02:56:17.827Z,52.21
2022-12-16T02:57:56.877Z,53.79
2022-12-16T02:59:18.285Z,55.47
2022-12-16T03:00:22.719Z,56.77
2022-12-16T03:01:32.468Z,58.20
2022-12-16T03:02:48.938Z,59.00
2022-12-16T03:04:10.397Z,58.53
2022-12-16T03:05:22.255Z,57.37
2022-12-16T03:06:28.031Z,55.99
2022-12-16T03:07:36.506Z,54.93
2022-12-16T03:08:43.803Z,53.33
2022-12-16T03:09:48.535Z,51.94
2022-12-16T03:11:02.229Z,51.86
2022-12-16T03:12:09.984Z,52.46
2022-12-16T03:13:14.105Z,53.47
2022-12-16T03:14:20.140Z,54.40
2022-12-16T03:15:25.556Z,55.61
2022-12-16T03:16:31.898Z,57.03
2022-12-16T03:17:36.788Z,58.65
2022-12-16T03:18:43.682Z,59.29
2022-12-16T03:19:54.453Z,58.86
2022-12-16T03:21:01.308Z,57.98
2022-12-16T03:22:28.915Z,56.88
2022-12-16T03:23:57.653Z,55.32
2022-12-16T03:24:58.932Z,53.56
2022-12-16T03:26:09.554Z,52.04
2022-12-16T03:27:22.569Z,51.71
2022-12-16T03:28:50.338Z,52.55
2022-12-16T03:30:19.498Z,53.86
2022-12-16T03:31:34.407Z,55.15
2022-12-16T03:33:05.459Z,56.56
2022-12-16T03:34:39.893Z,58.69
2022-12-16T03:35:49.498Z,59.29
2022-12-16T03:36:55.982Z,58.56
2022-12-16T03:37:59.312Z,57.46
2022-12-16T03:39:03.745Z,56.49
2022-12-16T03:40:08.940Z,55.60
2022-12-16T03:41:11.539Z,54.55
2022-12-16T03:42:15.407Z,52.92
2022-12-16T03:43:16.681Z,51.87
2022-12-16T03:44:19.298Z,51.95
2022-12-16T03:45:25.826Z,52.56
2022-12-16T03:46:26.844Z,53.67
2022-12-16T03:47:28.653Z,54.89
2022-12-16T03:48:30.396Z,56.03
2022-12-16T03:49:30.884Z,57.12
2022-12-16T03:50:34.398Z,58.69
2022-12-16T03:51:34.789Z,59.22
2022-12-16T03:52:35.611Z,58.86
2022-12-16T03:53:36.285Z,58.01
2022-12-16T03:54:36.780Z,57.15
2022-12-16T03:55:37.317Z,56.29
2022-12-16T03:56:37.949Z,55.15
2022-12-16T03:57:44.940Z,54.07
2022-12-16T03:58:46.371Z,52.42
2022-12-16T03:59:46.847Z,51.95
2022-12-16T04:00:47.402Z,52.36
2022-12-16T04:01:48.073Z,53.14
2022-12-16T04:02:49.307Z,54.16
2022-12-16T04:03:50.311Z,55.20
2022-12-16T04:04:50.709Z,56.41
2022-12-16T04:05:51.220Z,57.97
2022-12-16T04:07:11.905Z,59.16
2022-12-16T04:08:12.362Z,59.21
2022-12-16T04:09:12.743Z,58.54
2022-12-16T04:10:13.282Z,57.60
2022-12-16T04:11:33.620Z,56.48
2022-12-16T04:12:52.921Z,55.11
2022-12-16T04:14:12.331Z,53.74
2022-12-16T04:15:32.039Z,52.07
2022-12-16T04:16:51.686Z,52.10
2022-12-16T04:18:11.451Z,53.21
2022-12-16T04:19:40.658Z,54.49
2022-12-16T04:21:08.402Z,55.97
2022-12-16T04:22:33.341Z,58.05
2022-12-16T04:23:55.933Z,59.33
2022-12-16T04:24:59.576Z,58.93
2022-12-16T04:26:00.134Z,57.98
2022-12-16T04:27:19.624Z,56.93
2022-12-16T04:28:20.001Z,55.68
2022-12-16T04:29:20.750Z,54.67
2022-12-16T04:30:21.497Z,53.25
2022-12-16T04:31:22.109Z,51.98
2022-12-16T04:32:23.043Z,51.92
2022-12-16T04:33:43.076Z,52.56
2022-12-16T04:34:43.722Z,53.76
2022-12-16T04:36:04.308Z,54.75
2022-12-16T04:37:23.694Z,56.25
2022-12-16T04:38:42.873Z,58.34
2022-12-16T04:40:03.702Z,59.54
2022-12-16T04:41:23.414Z,59.14
2022-12-16T04:42:42.831Z,58.03
2022-12-16T04:44:02.332Z,56.67
2022-12-16T04:45:22.057Z,55.45
2022-12-16T04:46:41.287Z,54.28
2022-12-16T04:48:00.512Z,52.38
2022-12-16T04:49:19.870Z,52.12
2022-12-16T04:50:39.095Z,52.95
2022-12-16T04:51:58.998Z,54.30
2022-12-16T04:53:18.362Z,55.58
2022-12-16T04:54:37.349Z,57.45
2022-12-16T04:56:03.581Z,59.32
2022-12-16T04:57:23.673Z,59.44
2022-12-16T04:58:42.850Z,58.54
2022-12-16T05:00:03.408Z,57.35
2022-12-16T05:01:23.114Z,56.00
2022-12-16T05:02:42.418Z,54.85
2022-12-16T05:04:01.857Z,53.14
2022-12-16T05:05:21.223Z,52.09
2022-12-16T05:06:40.884Z,52.63
2022-12-16T05:08:00.387Z,53.86
2022-12-16T05:09:20.626Z,55.34
2022-12-16T05:10:39.865Z,56.32
2022-12-16T05:11:59.553Z,58.48
2022-12-16T05:13:18.921Z,59.70
2022-12-16T05:14:37.995Z,59.27
2022-12-16T05:15:58.560Z,58.07
2022-12-16T05:17:18.071Z,56.79
2022-12-16T05:18:37.480Z,55.45
2022-12-16T05:19:56.581Z,54.24
2022-12-16T05:21:17.173Z,52.32
2022-12-16T05:22:36.016Z,51.93
2022-12-16T05:23:55.328Z,52.95
2022-12-16T05:25:14.879Z,54.38
2022-12-16T05:26:34.467Z,55.72
2022-12-16T05:27:53.765Z,57.13
2022-12-16T05:29:13.297Z,59.14
2022-12-16T05:30:33.973Z,59.31
2022-12-16T05:31:53.596Z,58.40
2022-12-16T05:33:13.080Z,57.20
2022-12-16T05:34:32.271Z,55.91
2022-12-16T05:35:51.497Z,54.92
2022-12-16T05:37:11.269Z,52.99
2022-12-16T05:38:30.131Z,51.89
2022-12-16T05:39:49.374Z,52.46
2022-12-16T05:41:08.634Z,53.77
2022-12-16T05:42:27.728Z,55.11
2022-12-16T05:43:47.134Z,56.11
2022-12-16T05:45:06.591Z,57.89
2022-12-16T05:46:26.248Z,59.33
2022-12-16T05:47:46.593Z,59.20
2022-12-16T05:49:06.066Z,58.08
2022-12-16T05:50:25.873Z,56.78
2022-12-16T05:51:51.105Z,55.45
2022-12-16T05:53:13.271Z,54.27
2022-12-16T05:54:32.044Z,52.41
2022-12-16T05:56:22.664Z,52.20
2022-12-16T05:57:42.060Z,53.75
2022-12-16T05:59:01.281Z,55.04
2022-12-16T06:00:20.771Z,55.49
2022-12-16T06:01:41.107Z,56.92
2022-12-16T06:03:00.598Z,59.25
2022-12-16T06:04:20.108Z,59.93
2022-12-16T06:05:39.305Z,59.22
2022-12-16T06:06:59.097Z,57.96
2022-12-16T06:08:18.396Z,56.92
2022-12-16T06:09:38.097Z,55.67
2022-12-16T06:10:57.531Z,54.77
2022-12-16T06:12:16.617Z,53.04
2022-12-16T06:13:35.564Z,52.24
2022-12-16T06:14:55.324Z,52.69
2022-12-16T06:16:14.737Z,53.94
2022-12-16T06:17:33.830Z,55.54
2022-12-16T06:18:52.952Z,57.10
2022-12-16T06:20:12.615Z,58.93
2022-12-16T06:21:31.701Z,59.19
2022-12-16T06:22:51.734Z,58.37
2022-12-16T06:24:12.019Z,57.33
2022-12-16T06:25:31.368Z,56.29
2022-12-16T06:26:50.844Z,55.20
2022-12-16T06:28:11.329Z,53.94
2022-12-16T06:29:30.762Z,52.40
2022-12-16T06:30:49.960Z,52.59
2022-12-16T06:32:09.859Z,53.68
2022-12-16T06:33:29.246Z,54.91
2022-12-16T06:34:48.521Z,56.20
2022-12-16T06:36:07.781Z,58.09
2022-12-16T06:37:27.070Z,59.19
2022-12-16T06:38:46.361Z,58.81
2022-12-16T06:40:05.675Z,57.49
2022-12-16T06:41:25.233Z,56.09
2022-12-16T06:42:44.321Z,54.90
2022-12-16T06:44:03.461Z,53.00
2022-12-16T06:45:23.895Z,51.69
2022-12-16T06:46:43.297Z,52.21
2022-12-16T06:48:02.578Z,52.98
2022-12-16T06:49:21.925Z,54.27
2022-12-16T06:50:44.806Z,55.64
2022-12-16T06:52:04.377Z,56.91
2022-12-16T06:53:23.696Z,58.54
2022-12-16T06:54:42.920Z,59.41
2022-12-16T06:56:01.914Z,58.66
2022-12-16T06:57:56.104Z,57.83
2022-12-16T06:59:53.815Z,56.41
2022-12-16T07:01:13.709Z,54.90
2022-12-16T07:02:32.864Z,53.48
2022-12-16T07:03:52.192Z,52.30
2022-12-16T07:05:11.455Z,52.56
2022-12-16T07:06:30.938Z,54.17
2022-12-16T07:07:50.324Z,55.79
2022-12-16T07:09:09.504Z,57.49
2022-12-16T07:10:28.868Z,59.19
2022-12-16T07:11:48.289Z,59.72
2022-12-16T07:13:07.319Z,58.87
2022-12-16T07:14:52.673Z,57.73
2022-12-16T07:16:12.746Z,56.50
2022-12-16T07:17:31.619Z,55.16
2022-12-16T07:18:51.217Z,54.18
2022-12-16T07:20:10.980Z,52.35
2022-12-16T07:21:30.112Z,52.34
2022-12-16T07:22:54.250Z,53.08
2022-12-16T07:24:21.829Z,54.32
2022-12-16T07:26:03.674Z,56.47
2022-12-16T07:27:23.545Z,58.62
2022-12-16T07:28:43.330Z,59.38
2022-12-16T07:30:02.942Z,59.03
2022-12-16T07:31:22.911Z,58.07
2022-12-16T07:32:42.638Z,56.89
2022-12-16T07:34:01.990Z,55.86
2022-12-16T07:35:21.731Z,55.14
2022-12-16T07:36:40.943Z,53.86
2022-12-16T07:38:00.181Z,52.63
2022-12-16T07:39:19.505Z,52.67
2022-12-16T07:40:38.690Z,53.80
2022-12-16T07:41:58.250Z,54.75
2022-12-16T07:43:17.819Z,56.92
2022-12-16T07:44:36.666Z,58.76
2022-12-16T07:45:56.267Z,60.29
2022-12-16T07:47:15.596Z,59.99
2022-12-16T07:48:34.851Z,59.29
2022-12-16T07:49:55.461Z,58.20
2022-12-16T07:51:14.930Z,57.06
2022-12-16T07:52:34.138Z,56.40
2022-12-16T07:53:53.359Z,55.15
2022-12-16T07:55:12.642Z,54.62
2022-12-16T07:56:32.901Z,52.95
2022-12-16T07:57:52.333Z,52.37
2022-12-16T07:59:12.738Z,53.21
2022-12-16T08:00:32.105Z,54.72
2022-12-16T08:01:51.606Z,56.23
2022-12-16T08:03:13.027Z,58.50
2022-12-16T08:04:32.670Z,59.88
2022-12-16T08:05:52.222Z,59.60
2022-12-16T08:07:11.918Z,58.81
2022-12-16T08:08:31.389Z,56.96
2022-12-16T08:09:50.809Z,56.42
2022-12-16T08:11:10.259Z,55.68
2022-12-16T08:12:29.562Z,54.74
2022-12-16T08:13:49.151Z,53.31
2022-12-16T08:15:08.620Z,52.70
2022-12-16T08:16:28.283Z,53.40
2022-12-16T08:17:47.857Z,54.57
2022-12-16T08:19:11.011Z,55.95
2022-12-16T08:20:31.167Z,58.06
2022-12-16T08:21:50.628Z,59.93
2022-12-16T08:23:09.800Z,60.48
2022-12-16T08:24:29.187Z,59.94
2022-12-16T08:25:48.450Z,58.91
2022-12-16T08:27:07.753Z,57.89
2022-12-16T08:28:27.539Z,56.99
2022-12-16T08:29:46.854Z,56.17
2022-12-16T08:31:09.696Z,55.31
2022-12-16T08:32:29.479Z,54.48
2022-12-16T08:33:48.807Z,53.22
2022-12-16T08:35:07.902Z,53.03
2022-12-16T08:36:27.715Z,54.61
2022-12-16T08:37:47.383Z,55.73
2022-12-16T08:39:06.667Z,57.60
2022-12-16T08:40:35.297Z,59.66
2022-12-16T08:41:55.770Z,60.01
2022-12-16T08:43:15.779Z,59.48
2022-12-16T08:44:34.815Z,57.93
2022-12-16T08:45:54.259Z,57.57
2022-12-16T08:47:16.908Z,56.33
2022-12-16T08:48:36.210Z,55.54
2022-12-16T08:49:57.905Z,55.03
2022-12-16T08:51:23.537Z,53.83
2022-12-16T08:52:42.976Z,52.73
2022-12-16T08:54:02.522Z,52.90
2022-12-16T08:55:27.672Z,54.63
2022-12-16T08:56:49.066Z,56.44
2022-12-16T08:58:13.649Z,58.33
2022-12-16T08:59:32.702Z,59.80
2022-12-16T09:00:52.072Z,59.87
2022-12-16T09:02:12.028Z,59.11
2022-12-16T09:03:31.908Z,57.67
2022-12-16T09:05:29.075Z,57.22
2022-12-16T09:06:48.527Z,55.93
2022-12-16T09:08:08.221Z,55.68
2022-12-16T09:09:28.601Z,54.94
2022-12-16T09:11:19.184Z,54.15
2022-12-16T09:12:38.654Z,54.02
2022-12-16T09:13:58.264Z,56.46
2022-12-16T09:15:17.241Z,58.74
2022-12-16T09:16:36.361Z,59.66
2022-12-16T09:17:56.524Z,59.60
2022-12-16T09:19:15.832Z,58.82
2022-12-16T09:20:34.625Z,57.92
2022-12-16T09:21:54.807Z,57.36
2022-12-16T09:23:14.757Z,56.59
2022-12-16T09:24:33.606Z,56.07
2022-12-16T09:25:53.022Z,55.53
2022-12-16T09:27:15.205Z,54.90
2022-12-16T09:28:34.042Z,54.06
2022-12-16T09:29:53.523Z,52.98
2022-12-16T09:31:12.652Z,53.45
2022-12-16T09:32:31.848Z,54.66
2022-12-16T09:33:51.249Z,57.65
2022-12-16T09:35:13.653Z,59.86
2022-12-16T09:36:33.808Z,60.47
2022-12-16T09:37:52.944Z,60.03
2022-12-16T09:39:15.175Z,59.30
2022-12-16T09:40:36.053Z,58.21
2022-12-16T09:42:32.618Z,57.22
2022-12-16T09:44:38.402Z,56.19
2022-12-16T09:46:27.730Z,55.30
2022-12-16T09:48:12.097Z,54.67
2022-12-16T09:50:26.103Z,53.53
2022-12-16T09:51:47.484Z,55.19
2022-12-16T09:53:18.700Z,55.71
2022-12-16T09:54:46.108Z,58.41
2022-12-16T09:56:06.568Z,60.65
2022-12-16T09:57:27.336Z,60.74
2022-12-16T09:58:56.609Z,60.05
2022-12-16T10:00:22.791Z,59.23
2022-12-16T10:01:45.048Z,58.31
2022-12-16T10:03:09.186Z,57.24
2022-12-16T10:04:28.683Z,56.30
2022-12-16T10:06:13.685Z,55.68
2022-12-16T10:07:40.739Z,55.23
2022-12-16T10:09:13.810Z,55.08
2022-12-16T10:10:39.718Z,54.15
2022-12-16T10:12:20.385Z,53.47
2022-12-16T10:13:59.217Z,54.77
2022-12-16T10:16:02.975Z,55.77
2022-12-16T10:17:32.471Z,59.84
2022-12-16T10:19:28.937Z,60.60
2022-12-16T10:20:59.271Z,59.99
2022-12-16T10:22:33.669Z,58.89
2022-12-16T10:24:20.422Z,57.47
2022-12-16T10:25:47.055Z,56.57
2022-12-16T10:27:29.380Z,56.07
2022-12-16T10:29:03.899Z,55.10
2022-12-16T10:30:32.890Z,54.18
2022-12-16T10:31:55.785Z,52.80
2022-12-16T10:33:15.944Z,53.42
2022-12-16T10:34:45.698Z,54.19
2022-12-16T10:36:10.835Z,56.73
2022-12-16T10:37:52.228Z,59.15
2022-12-16T10:39:18.524Z,60.41
2022-12-16T10:40:45.123Z,59.98
2022-12-16T10:42:10.432Z,58.33
2022-12-16T10:43:38.787Z,58.02
2022-12-16T10:45:19.833Z,57.09
2022-12-16T10:46:46.937Z,56.17
2022-12-16T10:48:06.223Z,55.46
2022-12-16T10:49:33.110Z,54.79
2022-12-16T10:50:52.562Z,53.78
2022-12-16T10:52:41.283Z,53.17
2022-12-16T10:54:02.762Z,53.95
2022-12-16T10:55:47.663Z,55.85
2022-12-16T10:57:22.670Z,58.14
2022-12-16T10:59:01.651Z,60.13
2022-12-16T11:00:34.073Z,59.70
2022-12-16T11:01:53.480Z,58.78
2022-12-16T11:03:13.811Z,58.06
2022-12-16T11:04:48.942Z,57.20
2022-12-16T11:06:08.841Z,56.44
2022-12-16T11:07:44.395Z,55.70
2022-12-16T11:09:03.603Z,55.02
2022-12-16T11:10:42.464Z,54.06
2022-12-16T11:12:01.810Z,52.76
2022-12-16T11:13:42.245Z,53.14
2022-12-16T11:15:28.642Z,55.00
2022-12-16T11:16:49.377Z,58.12
2022-12-16T11:18:27.544Z,59.54
2022-12-16T11:19:48.674Z,59.31
2022-12-16T11:21:30.266Z,58.63
2022-12-16T11:22:49.541Z,57.67
2022-12-16T11:24:28.125Z,57.06
2022-12-16T11:25:47.642Z,55.71
2022-12-16T11:27:41.180Z,54.50
2022-12-16T11:29:00.563Z,54.01
2022-12-16T11:30:43.451Z,55.12
2022-12-16T11:32:03.080Z,56.52
2022-12-16T11:34:07.369Z,58.98
2022-12-16T11:35:40.706Z,60.13
2022-12-16T11:37:04.000Z,59.24
2022-12-16T11:38:42.692Z,57.72
2022-12-16T11:40:02.880Z,56.42
2022-12-16T11:41:25.302Z,55.97
2022-12-16T11:42:50.717Z,55.21
2022-12-16T11:44:13.519Z,54.41
2022-12-16T11:45:38.907Z,52.93
2022-12-16T11:46:58.820Z,53.04
2022-12-16T11:48:30.469Z,53.76
2022-12-16T11:49:52.422Z,56.50
2022-12-16T11:51:16.707Z,59.17
2022-12-16T11:52:40.033Z,59.56
2022-12-16T11:54:09.789Z,59.06
2022-12-16T11:57:22.666Z,57.16
2022-12-16T11:59:04.520Z,55.86
2022-12-16T12:00:25.783Z,55.39
2022-12-16T12:01:51.441Z,54.90
2022-12-16T12:03:40.073Z,53.45
2022-12-16T12:05:00.440Z,53.36
2022-12-16T12:06:48.643Z,55.58
2022-12-16T12:08:21.224Z,58.03
2022-12-16T12:09:45.282Z,58.86
2022-12-16T12:11:31.675Z,58.61
2022-12-16T12:13:07.156Z,57.56
2022-12-16T12:14:34.266Z,56.22
2022-12-16T12:16:19.987Z,56.24
2022-12-16T12:17:51.885Z,55.31
2022-12-16T12:19:21.134Z,54.65
2022-12-16T12:20:46.581Z,53.56
2022-12-16T12:22:33.336Z,53.79
2022-12-16T12:23:55.480Z,56.57
2022-12-16T12:25:35.144Z,57.81
2022-12-16T12:27:02.794Z,58.55
2022-12-16T12:28:31.152Z,57.48
2022-12-16T12:30:25.194Z,56.89
2022-12-16T12:32:18.414Z,56.00
2022-12-16T12:34:00.679Z,55.69
2022-12-16T12:35:43.890Z,55.04
2022-12-16T12:37:11.088Z,54.22
2022-12-16T12:39:16.357Z,54.13
2022-12-16T12:41:02.996Z,55.48
2022-12-16T12:42:32.653Z,59.04
2022-12-16T12:44:19.784Z,60.22
2022-12-16T12:46:27.616Z,59.61
2022-12-16T12:47:51.842Z,58.48
2022-12-16T12:49:28.819Z,57.73
2022-12-16T12:51:09.112Z,56.92
2022-12-16T12:53:07.871Z,55.95
2022-12-16T12:54:47.078Z,55.06
2022-12-16T12:56:25.085Z,54.44
2022-12-16T12:57:47.046Z,52.89
2022-12-16T12:59:11.694Z,53.64
2022-12-16T13:00:41.361Z,55.12
2022-12-16T13:02:02.715Z,57.21
2022-12-16T13:03:38.914Z,59.25
2022-12-16T13:05:00.902Z,59.69
2022-12-16T13:06:21.513Z,59.14
2022-12-16T13:07:41.184Z,57.98
2022-12-16T13:09:14.350Z,57.23
2022-12-16T13:10:43.026Z,56.73
2022-12-16T13:12:27.335Z,55.66
2022-12-16T13:13:52.557Z,55.18
2022-12-16T13:15:21.698Z,54.04
2022-12-16T13:17:02.833Z,53.96
2022-12-16T13:18:22.281Z,55.65
2022-12-16T13:19:48.253Z,57.40
2022-12-16T13:21:16.656Z,60.04
2022-12-16T13:22:51.416Z,60.50
2022-12-16T13:24:10.873Z,59.88
2022-12-16T13:26:07.827Z,58.62
2022-12-16T13:27:34.261Z,57.54
2022-12-16T13:28:58.157Z,56.84
2022-12-16T13:30:24.247Z,56.44
2022-12-16T13:31:47.632Z,55.89
2022-12-16T13:33:19.772Z,55.27
2022-12-16T13:34:48.083Z,54.78
2022-12-16T13:36:19.028Z,53.65
2022-12-16T13:37:45.723Z,53.85
2022-12-16T13:39:12.486Z,54.63
2022-12-16T13:40:40.661Z,56.02
2022-12-16T13:42:00.812Z,58.34
2022-12-16T13:43:23.708Z,59.74
2022-12-16T13:45:01.780Z,60.08
2022-12-16T13:46:24.260Z,59.71
2022-12-16T13:47:51.249Z,58.37
2022-12-16T13:49:10.878Z,57.77
2022-12-16T13:51:25.341Z,57.07
2022-12-16T13:53:12.023Z,56.36
2022-12-16T13:54:31.591Z,55.34
2022-12-16T13:56:15.687Z,54.96
2022-12-16T13:57:39.230Z,53.74
2022-12-16T13:59:04.586Z,54.29
2022-12-16T14:00:41.515Z,54.73
2022-12-16T14:02:12.835Z,56.21
2022-12-16T14:04:03.284Z,58.72
2022-12-16T14:05:38.198Z,60.66
2022-12-16T14:06:59.293Z,60.12
2022-12-16T14:08:18.826Z,59.53
2022-12-16T14:09:52.689Z,58.60
2022-12-16T14:11:19.142Z,57.59
2022-12-16T14:13:17.057Z,56.62
2022-12-16T14:14:47.477Z,56.24
2022-12-16T14:16:34.152Z,55.52
2022-12-16T14:18:05.621Z,54.95
2022-12-16T14:19:45.995Z,54.52
2022-12-16T14:21:21.504Z,54.42
2022-12-16T14:22:41.414Z,55.68
2022-12-16T14:24:31.050Z,57.28
2022-12-16T14:25:50.930Z,59.45
2022-12-16T14:27:10.697Z,59.22
2022-12-16T14:28:48.171Z,58.66
2022-12-16T14:30:07.736Z,57.31
2022-12-16T14:31:55.236Z,56.96
2022-12-16T14:33:14.907Z,56.22
2022-12-16T14:34:38.906Z,55.87
2022-12-16T14:36:08.201Z,55.64
2022-12-16T14:37:37.054Z,55.50
2022-12-16T14:39:05.515Z,55.37
2022-12-16T14:40:49.597Z,55.18
2022-12-16T14:42:09.742Z,54.84
2022-12-16T14:43:36.861Z,54.30
2022-12-16T14:44:56.690Z,54.27
2022-12-16T14:46:17.013Z,54.87
2022-12-16T14:47:40.301Z,56.15
2022-12-16T14:49:05.492Z,58.38
2022-12-16T14:50:54.432Z,59.88
2022-12-16T14:52:13.684Z,59.92
2022-12-16T14:53:37.329Z,59.26
2022-12-16T14:55:01.878Z,58.31
2022-12-16T14:56:33.504Z,58.04
2022-12-16T14:57:53.551Z,57.20
2022-12-16T14:59:31.998Z,56.71
2022-12-16T15:00:55.162Z,55.91
2022-12-16T15:02:30.183Z,55.57
2022-12-16T15:04:03.407Z,55.19
2022-12-16T15:05:25.000Z,54.79
2022-12-16T15:06:50.623Z,53.94
2022-12-16T15:08:11.610Z,53.49
2022-12-16T15:09:40.594Z,54.41
2022-12-16T15:11:01.275Z,55.73
2022-12-16T15:12:20.813Z,57.67
2022-12-16T15:13:41.337Z,60.14
2022-12-16T15:15:01.209Z,60.41
2022-12-16T15:16:23.566Z,60.07
2022-12-16T15:18:01.077Z,59.46
2022-12-16T15:19:22.670Z,58.48
2022-12-16T15:20:47.700Z,57.63
2022-12-16T15:22:07.414Z,56.96
2022-12-16T15:23:39.790Z,55.92
2022-12-16T15:24:59.342Z,55.96
2022-12-16T15:26:19.583Z,55.55
2022-12-16T15:27:39.098Z,55.08
2022-12-16T15:29:01.768Z,54.62
2022-12-16T15:30:42.290Z,53.34
2022-12-16T15:32:03.721Z,53.25
2022-12-16T15:33:24.690Z,55.16
2022-12-16T15:34:49.804Z,57.93
2022-12-16T15:36:09.589Z,59.49
2022-12-16T15:37:35.484Z,59.80
2022-12-16T15:38:54.995Z,59.21
2022-12-16T15:40:14.267Z,58.42
2022-12-16T15:41:55.733Z,57.68
2022-12-16T15:43:57.471Z,57.01
2022-12-16T15:45:17.774Z,56.47
2022-12-16T15:46:41.790Z,55.86
2022-12-16T15:48:01.086Z,55.10
2022-12-16T15:49:21.329Z,55.15
2022-12-16T15:50:47.244Z,54.66
2022-12-16T15:52:09.060Z,53.69
2022-12-16T15:53:47.399Z,53.96
2022-12-16T15:55:10.689Z,55.57
2022-12-16T15:56:41.786Z,57.60
2022-12-16T15:58:14.140Z,59.47
2022-12-16T15:59:46.639Z,60.14
2022-12-16T16:01:15.973Z,59.41
2022-12-16T16:02:48.283Z,58.66
2022-12-16T16:04:10.749Z,57.57
2022-12-16T16:05:33.673Z,56.88
2022-12-16T16:06:53.949Z,56.30
2022-12-16T16:08:13.356Z,55.53
2022-12-16T16:09:38.210Z,55.27
2022-12-16T16:11:02.012Z,54.97
2022-12-16T16:12:21.741Z,54.23
2022-12-16T16:13:41.381Z,53.58
2022-12-16T16:15:01.330Z,54.15
2022-12-16T16:16:22.102Z,55.90
2022-12-16T16:17:42.142Z,59.09
2022-12-16T16:19:01.857Z,60.40
2022-12-16T16:20:21.445Z,60.36
2022-12-16T16:21:41.960Z,59.68
2022-12-16T16:23:01.231Z,58.87
2022-12-16T16:24:20.416Z,57.73
2022-12-16T16:25:39.684Z,57.02
2022-12-16T16:26:59.643Z,56.39
2022-12-16T16:28:19.002Z,55.71
2022-12-16T16:29:38.130Z,55.17
2022-12-16T16:30:57.447Z,54.66
2022-12-16T16:32:16.763Z,53.79
2022-12-16T16:33:36.472Z,53.69
2022-12-16T16:34:56.143Z,54.82
2022-12-16T16:36:15.224Z,56.47
2022-12-16T16:37:37.755Z,58.62
2022-12-16T16:38:58.007Z,60.34
2022-12-16T16:40:17.126Z,60.34
2022-12-16T16:41:36.748Z,59.60
2022-12-16T16:42:56.156Z,58.21
2022-12-16T16:44:19.623Z,57.17
2022-12-16T16:45:39.976Z,56.07
2022-12-16T16:46:59.970Z,55.17
2022-12-16T16:48:39.719Z,53.93
2022-12-16T16:50:03.325Z,52.44
2022-12-16T16:51:23.329Z,52.84
2022-12-16T16:52:45.686Z,54.32
2022-12-16T16:54:05.204Z,56.19
2022-12-16T16:55:25.475Z,57.95
2022-12-16T16:56:49.323Z,59.93
2022-12-16T16:58:08.813Z,59.94
2022-12-16T16:59:31.182Z,59.06
2022-12-16T17:00:51.309Z,57.84
2022-12-16T17:02:11.016Z,56.59
2022-12-16T17:03:31.316Z,55.29
2022-12-16T17:04:51.224Z,54.14
2022-12-16T17:06:10.773Z,52.48
2022-12-16T17:07:30.286Z,52.59
2022-12-16T17:08:49.660Z,54.33
2022-12-16T17:10:08.952Z,56.46
2022-12-16T17:11:36.865Z,58.29
2022-12-16T17:13:04.470Z,59.00
2022-12-16T17:14:28.422Z,58.43
2022-12-16T17:15:55.223Z,57.39
2022-12-16T17:17:15.358Z,55.92
2022-12-16T17:18:36.573Z,55.24
2022-12-16T17:19:56.970Z,54.33
2022-12-16T17:21:16.858Z,52.64